Time;durP1;ratioP1;P1;durP2;ratioP2;P2;SDS_P1;SDS_P2;PMS_P1;PMS_P2;Temp;Humidity;BMP_temperature;BMP_pressure;BME280_temperature;BME280_humidity;BME280_pressure;Samples;Min_cycle;Max_cycle;Signal;HPM_P1;HPM_P2
2021/05/11 17:35:57;;;;;;;1.47;1.30;;;25.70;60.20;;;;;;697019;23;20764;-94
2021/05/11 17:38:30;;;;;;;1.60;1.40;;;25.70;60.10;;;;;;4969945;29;20505;-92
2021/05/11 17:40:57;;;;;;;1.43;1.33;;;25.80;60.00;;;;;;4978027;28;20448;-93
2021/05/11 17:43:24;;;;;;;1.30;1.20;;;25.80;60.00;;;;;;4981769;28;20445;-94
2021/05/11 17:45:54;;;;;;;1.47;1.37;;;25.80;59.90;;;;;;4981889;28;20473;-92
2021/05/11 17:48:22;;;;;;;1.50;1.40;;;25.80;59.90;;;;;;4969913;28;20445;-93
2021/05/11 17:50:49;;;;;;;2.17;1.30;;;25.90;60.00;;;;;;4960690;29;20813;-94
2021/05/11 17:53:16;;;;;;;1.70;1.50;;;25.80;59.90;;;;;;4963550;29;20477;-93
2021/05/11 17:55:43;;;;;;;1.83;1.30;;;25.80;59.90;;;;;;4958844;29;20482;-91
2021/05/11 17:58:10;;;;;;;1.90;1.70;;;25.80;59.80;;;;;;4957271;29;20494;-91
2021/05/11 18:00:37;;;;;;;1.47;1.23;;;25.80;59.70;;;;;;4958676;29;20515;-90
2021/05/11 18:03:05;;;;;;;1.67;1.57;;;25.80;59.70;;;;;;4962043;29;20953;-86
2021/05/11 18:05:34;;;;;;;1.40;1.30;;;25.80;59.60;;;;;;4966910;29;20450;-93
2021/05/11 18:08:00;;;;;;;1.30;1.20;;;25.80;59.70;;;;;;4962781;29;20979;-94
2021/05/11 18:10:28;;;;;;;2.50;1.70;;;25.80;59.50;;;;;;4959192;29;20544;-95
2021/05/11 18:12:54;;;;;;;1.40;1.30;;;25.80;59.70;;;;;;4959457;28;20469;-93
2021/05/11 18:15:24;;;;;;;2.50;1.40;;;25.80;59.70;;;;;;4957422;29;20453;-94
2021/05/11 18:17:51;;;;;;;1.80;1.70;;;25.80;59.40;;;;;;4958314;29;20971;-94
2021/05/11 18:20:19;;;;;;;1.60;1.50;;;25.80;59.70;;;;;;4958810;29;20967;-95
2021/05/11 18:22:46;;;;;;;1.60;1.50;;;25.80;59.90;;;;;;4957132;29;20948;-94
2021/05/11 18:25:37;;;;;;;2.63;1.37;;;25.80;59.80;;;;;;4958169;29;20465;-95
2021/05/11 18:28:04;;;;;;;3.20;2.20;;;25.90;59.80;;;;;;4954111;29;20478;-93
2021/05/11 18:30:31;;;;;;;2.00;1.80;;;25.90;59.90;;;;;;4956746;29;20478;-92
2021/05/11 18:32:57;;;;;;;2.57;2.00;;;26.00;60.50;;;;;;4956586;29;20796;-92
2021/05/11 18:35:24;;;;;;;1.50;1.40;;;25.90;60.20;;;;;;4955382;29;20464;-92
2021/05/11 18:37:54;;;;;;;1.53;1.43;;;25.90;60.90;;;;;;4937440;29;20581;-93
2021/05/11 18:40:21;;;;;;;2.50;1.60;;;25.90;60.00;;;;;;4938067;29;20430;-92
2021/05/11 18:42:48;;;;;;;2.37;1.60;;;25.90;60.00;;;;;;4937355;29;20470;-92
2021/05/11 18:45:15;;;;;;;1.83;1.73;;;25.90;60.00;;;;;;4938384;29;20534;-93
2021/05/11 18:47:55;;;;;;;1.50;1.40;;;26.00;60.00;;;;;;4939406;29;20514;-92
2021/05/11 18:50:23;;;;;;;2.03;1.87;;;26.00;60.00;;;;;;4938487;29;20462;-92
2021/05/11 18:52:50;;;;;;;1.87;1.67;;;26.00;59.90;;;;;;4937720;29;20451;-91
2021/05/11 18:55:16;;;;;;;1.77;1.67;;;26.00;59.90;;;;;;4938656;29;20547;-89
2021/05/11 18:57:44;;;;;;;3.20;2.30;;;26.00;60.30;;;;;;4937760;29;20516;-93
2021/05/11 19:00:12;;;;;;;4.33;1.97;;;26.00;60.00;;;;;;4937808;29;20449;-90
2021/05/11 19:02:39;;;;;;;2.20;1.70;;;26.00;60.10;;;;;;4936976;29;21012;-91
2021/05/11 19:05:06;;;;;;;4.50;2.70;;;26.00;60.40;;;;;;4937153;29;20450;-90
2021/05/11 19:07:33;;;;;;;2.53;1.83;;;26.00;60.70;;;;;;4936589;29;20534;-90
2021/05/11 19:09:59;;;;;;;2.23;2.03;;;26.00;60.50;;;;;;4937141;29;20473;-92
2021/05/11 19:12:26;;;;;;;2.47;2.27;;;26.10;60.50;;;;;;4936949;29;20517;-92
2021/05/11 19:14:52;;;;;;;1.97;1.87;;;26.10;60.40;;;;;;4937277;29;20459;-92
2021/05/11 19:17:20;;;;;;;2.60;1.87;;;26.10;60.70;;;;;;4936804;29;20969;-91
2021/05/11 19:19:47;;;;;;;2.50;2.13;;;26.10;60.50;;;;;;4936705;29;20477;-91
2021/05/11 19:22:13;;;;;;;4.03;2.20;;;26.10;60.70;;;;;;4937336;29;20451;-91
2021/05/11 19:24:40;;;;;;;2.10;1.80;;;26.10;60.60;;;;;;4936690;29;20463;-91
2021/05/11 19:27:06;;;;;;;2.30;2.10;;;26.10;60.70;;;;;;4936660;29;20450;-92
2021/05/11 19:29:32;;;;;;;2.23;2.03;;;26.10;60.30;;;;;;4936449;29;20450;-89
2021/05/11 19:31:59;;;;;;;4.30;1.70;;;26.10;60.40;;;;;;4936125;29;20437;-90
2021/05/11 19:34:26;;;;;;;1.80;1.70;;;26.10;60.40;;;;;;4936232;29;20481;-90
2021/05/11 19:36:54;;;;;;;3.47;1.83;;;26.10;60.60;;;;;;4935811;29;20487;-84
2021/05/11 19:39:21;;;;;;;1.90;1.80;;;26.10;60.60;;;;;;4936268;29;20443;-83
2021/05/11 19:41:47;;;;;;;2.63;1.60;;;26.10;59.80;;;;;;4935909;29;20948;-82
2021/05/11 19:44:15;;;;;;;1.70;1.60;;;26.10;59.50;;;;;;4935870;29;20439;-87
2021/05/11 19:46:42;;;;;;;1.70;1.60;;;26.10;59.50;;;;;;4935739;29;20466;-87
2021/05/11 19:49:08;;;;;;;1.97;1.63;;;26.10;59.70;;;;;;4935701;29;20801;-89
2021/05/11 19:51:36;;;;;;;2.27;1.70;;;26.10;60.00;;;;;;4935894;29;20447;-89
2021/05/11 19:54:03;;;;;;;3.50;1.57;;;26.10;60.00;;;;;;4935876;29;20843;-89
2021/05/11 19:56:29;;;;;;;3.00;1.80;;;26.10;60.30;;;;;;4935598;29;20960;-88
2021/05/11 19:58:56;;;;;;;1.60;1.40;;;26.10;60.20;;;;;;4935531;29;20499;-89
2021/05/11 20:01:24;;;;;;;2.27;1.37;;;26.10;60.20;;;;;;4935598;29;20475;-90
2021/05/11 20:03:51;;;;;;;1.60;1.50;;;26.10;60.30;;;;;;4935695;29;20947;-89
2021/05/11 20:06:17;;;;;;;1.43;1.33;;;26.10;60.30;;;;;;4935631;29;20456;-88
2021/05/11 20:08:44;;;;;;;1.80;1.70;;;26.10;61.20;;;;;;4935741;29;20534;-89
2021/05/11 20:11:11;;;;;;;1.80;1.50;;;26.10;60.40;;;;;;4935596;29;20462;-88
2021/05/11 20:13:37;;;;;;;2.10;1.80;;;26.10;60.30;;;;;;4935575;29;20443;-90
2021/05/11 20:16:04;;;;;;;2.67;1.50;;;26.10;60.40;;;;;;4935572;29;20440;-89
2021/05/11 20:18:30;;;;;;;1.50;1.40;;;26.10;60.30;;;;;;4935505;29;20491;-90
2021/05/11 20:20:57;;;;;;;2.33;1.30;;;26.10;60.40;;;;;;4935595;29;20463;-90
2021/05/11 20:23:23;;;;;;;1.53;1.43;;;26.10;60.40;;;;;;4935637;29;20546;-90
2021/05/11 20:25:50;;;;;;;1.20;1.10;;;26.10;60.50;;;;;;4935554;29;20458;-90
2021/05/11 20:28:17;;;;;;;3.90;1.50;;;26.10;60.60;;;;;;4935453;29;20442;-90
2021/05/11 20:30:45;;;;;;;1.47;1.37;;;26.10;60.50;;;;;;4935469;29;20525;-90
2021/05/11 20:33:14;;;;;;;1.73;1.63;;;26.10;60.50;;;;;;4935432;29;21001;-89
2021/05/11 20:35:43;;;;;;;4.17;1.20;;;26.10;60.50;;;;;;4935512;29;20451;-90
2021/05/11 20:38:09;;;;;;;2.87;1.53;;;26.10;60.40;;;;;;4938267;29;20558;-89
2021/05/11 20:40:36;;;;;;;1.60;1.50;;;26.10;60.50;;;;;;4938967;29;20453;-88
2021/05/11 20:43:03;;;;;;;1.77;1.40;;;26.10;60.60;;;;;;4938821;29;20585;-88
2021/05/11 20:45:30;;;;;;;1.47;1.37;;;26.10;60.60;;;;;;4938897;29;20624;-88
2021/05/11 20:47:56;;;;;;;1.57;1.47;;;26.10;60.50;;;;;;4938660;29;20447;-89
2021/05/11 20:50:24;;;;;;;3.13;1.60;;;26.10;60.50;;;;;;4938948;29;20478;-89
2021/05/11 20:52:51;;;;;;;1.67;1.50;;;26.10;60.50;;;;;;4939220;29;20455;-88
2021/05/11 20:55:18;;;;;;;3.97;1.50;;;26.10;60.60;;;;;;4938758;29;20452;-86
2021/05/11 20:57:44;;;;;;;2.53;1.70;;;26.10;60.50;;;;;;4938927;29;20495;-83
2021/05/11 21:00:13;;;;;;;19.13;2.43;;;26.10;60.50;;;;;;4938874;29;20453;-87
2021/05/11 21:02:40;;;;;;;1.57;1.47;;;26.10;59.90;;;;;;4938919;29;20449;-88
2021/05/11 21:05:07;;;;;;;1.63;1.53;;;26.10;60.00;;;;;;4939084;29;20452;-88
2021/05/11 21:07:34;;;;;;;1.80;1.70;;;26.10;60.20;;;;;;4938948;29;20842;-87
2021/05/11 21:10:03;;;;;;;2.93;1.90;;;26.10;60.40;;;;;;4939017;29;20526;-87
2021/05/11 21:12:29;;;;;;;2.70;1.80;;;26.10;60.60;;;;;;4938960;29;20442;-87
2021/05/11 21:14:56;;;;;;;4.13;1.70;;;26.10;60.60;;;;;;4938746;29;20483;-88
2021/05/11 21:17:23;;;;;;;1.97;1.63;;;26.10;60.60;;;;;;4938372;29;20492;-87
2021/05/11 21:19:51;;;;;;;2.40;1.50;;;26.10;60.60;;;;;;4938127;29;20992;-87
2021/05/11 21:22:17;;;;;;;1.73;1.63;;;26.10;60.70;;;;;;4938551;29;20861;-87
2021/05/11 21:24:43;;;;;;;1.90;1.57;;;26.10;60.70;;;;;;4938350;29;20447;-88
2021/05/11 21:27:11;;;;;;;2.00;1.70;;;26.00;60.70;;;;;;4938273;29;20533;-88
2021/05/11 21:29:37;;;;;;;3.43;1.67;;;26.00;60.80;;;;;;4938445;29;20530;-88
2021/05/11 21:32:05;;;;;;;1.60;1.50;;;26.00;60.90;;;;;;4938074;29;20445;-87
2021/05/11 21:34:33;;;;;;;1.80;1.70;;;26.00;60.90;;;;;;4938476;29;20455;-87
2021/05/11 21:36:59;;;;;;;1.60;1.50;;;26.00;60.90;;;;;;4937787;29;20479;-87
2021/05/11 21:39:25;;;;;;;1.70;1.60;;;26.00;60.90;;;;;;4937897;29;20554;-87
2021/05/11 21:41:53;;;;;;;1.70;1.60;;;26.00;60.90;;;;;;4938196;29;20443;-87
2021/05/11 21:44:19;;;;;;;1.70;1.60;;;26.00;60.90;;;;;;4938184;29;20578;-87
2021/05/11 21:46:45;;;;;;;1.80;1.70;;;26.00;60.90;;;;;;4937828;29;20455;-87
2021/05/11 21:49:13;;;;;;;2.40;1.60;;;26.00;60.90;;;;;;4937068;29;20463;-87
2021/05/11 21:51:41;;;;;;;3.10;1.60;;;25.90;60.90;;;;;;4937929;29;20465;-87
2021/05/11 21:54:07;;;;;;;1.93;1.80;;;25.90;60.90;;;;;;4937776;29;20443;-87
2021/05/11 21:56:33;;;;;;;1.83;1.60;;;25.90;60.90;;;;;;4937700;29;20534;-88
2021/05/11 21:59:00;;;;;;;1.90;1.80;;;25.90;60.90;;;;;;4937764;29;20589;-87
2021/05/11 22:01:26;;;;;;;1.93;1.83;;;25.90;60.80;;;;;;4937852;29;20469;-87
2021/05/11 22:03:53;;;;;;;2.43;1.50;;;25.90;60.80;;;;;;4937778;29;20457;-88
2021/05/11 22:06:19;;;;;;;1.87;1.77;;;25.90;60.90;;;;;;4937410;29;20549;-88
2021/05/11 22:08:46;;;;;;;1.87;1.77;;;25.90;60.90;;;;;;4937676;29;20594;-88
2021/05/11 22:11:13;;;;;;;1.60;1.50;;;25.90;61.00;;;;;;4937578;29;20518;-88
2021/05/11 22:13:39;;;;;;;1.73;1.60;;;25.90;60.90;;;;;;4937486;29;20444;-88
2021/05/11 22:16:07;;;;;;;1.63;1.50;;;25.90;60.80;;;;;;4937599;29;20796;-88
2021/05/11 22:18:34;;;;;;;1.60;1.50;;;25.90;60.90;;;;;;4937287;29;20481;-88
2021/05/11 22:21:01;;;;;;;1.83;1.73;;;25.90;60.90;;;;;;4937462;29;20537;-88
2021/05/11 22:23:28;;;;;;;1.83;1.40;;;25.80;60.80;;;;;;4937194;29;20447;-88
2021/05/11 22:25:55;;;;;;;1.93;1.83;;;25.80;60.80;;;;;;4937482;29;20541;-88
2021/05/11 22:28:22;;;;;;;2.00;1.73;;;25.80;60.80;;;;;;4937359;29;20548;-88
2021/05/11 22:30:49;;;;;;;1.70;1.60;;;25.80;60.90;;;;;;4937327;29;20447;-87
2021/05/11 22:33:15;;;;;;;1.70;1.60;;;25.80;60.80;;;;;;4937361;29;20465;-88
2021/05/11 22:35:41;;;;;;;3.10;1.70;;;25.80;60.80;;;;;;4937297;29;20944;-86
2021/05/11 22:38:08;;;;;;;2.60;1.80;;;25.80;60.90;;;;;;4940317;29;20532;-88
2021/05/11 22:40:34;;;;;;;1.70;1.60;;;25.80;60.90;;;;;;4939448;29;20922;-87
2021/05/11 22:43:03;;;;;;;1.40;1.30;;;25.80;60.90;;;;;;4938242;29;20453;-87
2021/05/11 22:45:30;;;;;;;1.80;1.70;;;25.80;60.90;;;;;;4937479;29;20453;-87
2021/05/11 22:48:03;;;;;;;1.40;1.30;;;25.80;60.80;;;;;;4937027;29;20496;-87
2021/05/11 22:50:32;;;;;;;2.10;1.90;;;25.80;60.80;;;;;;4936816;29;20470;-89
2021/05/11 22:52:59;;;;;;;2.10;1.90;;;25.80;60.90;;;;;;4937037;29;20475;-87
2021/05/11 22:55:26;;;;;;;1.90;1.80;;;25.80;60.90;;;;;;4937118;29;20450;-87
2021/05/11 22:57:52;;;;;;;1.97;1.87;;;25.80;60.90;;;;;;4936851;29;20521;-88
2021/05/11 23:00:21;;;;;;;1.60;1.50;;;25.80;60.80;;;;;;4936917;29;20476;-88
2021/05/11 23:02:47;;;;;;;1.83;1.73;;;25.80;60.80;;;;;;4936738;29;20516;-88
2021/05/11 23:05:14;;;;;;;2.10;1.93;;;25.80;60.80;;;;;;4936878;29;20446;-88
2021/05/11 23:07:41;;;;;;;1.93;1.83;;;25.80;60.90;;;;;;4936707;29;20450;-87
2021/05/11 23:10:08;;;;;;;1.90;1.80;;;25.70;60.70;;;;;;4936840;29;20450;-89
2021/05/11 23:12:35;;;;;;;2.23;2.10;;;25.70;60.70;;;;;;4936410;29;20449;-88
2021/05/11 23:15:01;;;;;;;1.83;1.73;;;25.70;60.60;;;;;;4936654;29;20537;-88
2021/05/11 23:17:28;;;;;;;1.83;1.73;;;25.90;60.90;;;;;;4936135;29;20486;-88
2021/05/11 23:19:58;;;;;;;1.77;1.67;;;25.80;60.90;;;;;;4936160;29;20458;-88
2021/05/11 23:22:24;;;;;;;1.93;1.83;;;25.70;60.80;;;;;;4936532;29;20467;-87
2021/05/11 23:24:51;;;;;;;1.90;1.80;;;25.70;60.80;;;;;;4936497;29;20439;-88
2021/05/11 23:27:18;;;;;;;3.20;2.23;;;25.70;61.70;;;;;;4936533;29;20538;-88
2021/05/11 23:29:44;;;;;;;2.33;2.13;;;25.70;60.80;;;;;;4936373;29;20445;-88
2021/05/11 23:32:10;;;;;;;2.80;1.83;;;25.70;60.80;;;;;;4936295;29;20592;-89
2021/05/11 23:34:38;;;;;;;1.83;1.73;;;25.70;60.80;;;;;;4936436;29;20489;-88
2021/05/11 23:37:04;;;;;;;1.93;1.83;;;25.70;60.80;;;;;;4935969;29;20544;-88
2021/05/11 23:39:31;;;;;;;1.93;1.83;;;25.70;60.80;;;;;;4936260;29;20964;-88
2021/05/11 23:41:57;;;;;;;2.10;1.90;;;25.70;60.80;;;;;;4936396;29;20547;-88
2021/05/11 23:44:26;;;;;;;2.27;2.07;;;25.70;60.80;;;;;;4936506;29;20449;-88
2021/05/11 23:46:52;;;;;;;2.00;1.90;;;25.70;60.80;;;;;;4936200;29;20454;-88
2021/05/11 23:49:19;;;;;;;5.37;1.77;;;25.70;60.80;;;;;;4936440;29;20480;-88
2021/05/11 23:51:46;;;;;;;2.13;2.03;;;25.70;60.80;;;;;;4936375;29;20451;-88
2021/05/11 23:54:12;;;;;;;1.83;1.73;;;25.70;60.80;;;;;;4936006;29;20456;-88
2021/05/11 23:56:39;;;;;;;1.50;1.40;;;25.70;60.80;;;;;;4935977;29;20446;-88
2021/05/11 23:59:05;;;;;;;2.17;2.07;;;25.70;60.90;;;;;;4936078;29;20581;-88
